Time;durP1;ratioP1;P1;durP2;ratioP2;P2;SDS_P1;SDS_P2;PMS_P1;PMS_P2;Temp;Humidity;BMP_temperature;BMP_pressure;BME280_temperature;BME280_humidity;BME280_pressure;Samples;Min_cycle;Max_cycle;Signal;HPM_P1;HPM_P2
2023/04/21 00:00:52;;;;;;;69.93;38.00;;;7.30;99.90;;;;;;5052660;28;20443;-51
2023/04/21 00:03:20;;;;;;;72.83;37.27;;;7.30;99.90;;;;;;5070821;28;20062;-48
2023/04/21 00:05:47;;;;;;;76.20;38.77;;;7.30;99.90;;;;;;5070787;28;20025;-52
2023/04/21 00:08:13;;;;;;;71.13;36.57;;;7.30;99.90;;;;;;5070385;28;20064;-48
2023/04/21 00:10:39;;;;;;;75.17;36.60;;;7.30;99.90;;;;;;5070558;28;20032;-47
2023/04/21 00:13:05;;;;;;;76.83;37.43;;;7.30;99.90;;;;;;5070520;28;20037;-50
2023/04/21 00:15:31;;;;;;;75.80;37.10;;;7.30;99.90;;;;;;5070668;28;20029;-50
2023/04/21 00:17:57;;;;;;;83.27;37.80;;;7.40;99.90;;;;;;5070528;28;20063;-50
2023/04/21 00:20:25;;;;;;;76.93;36.97;;;7.40;99.90;;;;;;5070644;28;20036;-54
2023/04/21 00:22:55;;;;;;;69.57;37.20;;;7.40;99.90;;;;;;5070617;28;20036;-50
2023/04/21 00:25:22;;;;;;;76.23;36.13;;;7.30;99.90;;;;;;5070620;28;20389;-51
2023/04/21 00:27:47;;;;;;;75.97;37.77;;;7.30;99.90;;;;;;5073525;28;20138;-54
2023/04/21 00:30:13;;;;;;;75.77;37.47;;;7.30;99.90;;;;;;5073588;28;20119;-52
2023/04/21 00:32:39;;;;;;;76.33;36.80;;;7.30;99.90;;;;;;5074987;28;20033;-51
2023/04/21 00:35:06;;;;;;;77.30;37.97;;;7.20;99.90;;;;;;5074467;28;20024;-50
2023/04/21 00:37:32;;;;;;;78.70;37.67;;;7.20;99.90;;;;;;5073243;28;20152;-51
2023/04/21 00:39:58;;;;;;;80.20;38.53;;;7.20;99.90;;;;;;5073527;28;20032;-51
2023/04/21 00:42:24;;;;;;;82.03;39.67;;;7.20;99.90;;;;;;5073515;28;20036;-48
2023/04/21 00:44:51;;;;;;;86.17;38.80;;;7.20;99.90;;;;;;5074807;28;20419;-52
2023/04/21 00:47:17;;;;;;;84.43;38.50;;;7.20;99.90;;;;;;5073197;28;20052;-48
2023/04/21 00:49:43;;;;;;;78.93;37.63;;;7.30;99.90;;;;;;5074503;28;20043;-50
2023/04/21 00:52:10;;;;;;;75.43;35.77;;;7.30;99.90;;;;;;5074250;28;20028;-52
2023/04/21 00:54:36;;;;;;;79.57;36.47;;;7.20;99.90;;;;;;5074279;28;20082;-52
2023/04/21 00:57:02;;;;;;;74.03;37.60;;;7.20;99.90;;;;;;5073020;28;20021;-50
2023/04/21 00:59:29;;;;;;;78.27;36.63;;;7.20;99.90;;;;;;5073096;28;20025;-49
2023/04/21 01:01:55;;;;;;;84.30;39.00;;;7.20;99.90;;;;;;5073045;28;20078;-49
2023/04/21 01:04:21;;;;;;;80.33;37.70;;;7.20;99.90;;;;;;5074001;28;20385;-51
2023/04/21 01:06:47;;;;;;;85.00;37.30;;;7.20;99.90;;;;;;5073973;28;20032;-52
2023/04/21 01:09:13;;;;;;;91.43;39.10;;;7.10;99.90;;;;;;5072896;28;20607;-50
2023/04/21 01:11:38;;;;;;;87.67;39.73;;;7.10;99.90;;;;;;5072785;28;20162;-53
2023/04/21 01:14:06;;;;;;;91.87;39.87;;;7.10;99.90;;;;;;5073901;28;20033;-49
2023/04/21 01:16:32;;;;;;;88.67;38.60;;;7.10;99.90;;;;;;5073883;28;20039;-51
2023/04/21 01:19:04;;;;;;;83.40;37.63;;;7.10;99.90;;;;;;5072449;28;20033;-49
2023/04/21 01:21:39;;;;;;;88.43;38.80;;;7.10;99.90;;;;;;5072490;28;20025;-50
2023/04/21 01:24:05;;;;;;;92.83;39.97;;;7.10;99.90;;;;;;5073876;28;20039;-51
2023/04/21 01:26:31;;;;;;;89.37;38.97;;;7.10;99.90;;;;;;5072325;28;20032;-49
2023/04/21 01:28:56;;;;;;;90.20;38.67;;;7.10;99.90;;;;;;5073756;28;20036;-48
2023/04/21 01:31:23;;;;;;;94.17;38.07;;;7.10;99.90;;;;;;5073765;28;20436;-51
2023/04/21 01:33:49;;;;;;;98.50;40.97;;;7.10;99.90;;;;;;5081711;22;20103;-49
2023/04/21 01:36:15;;;;;;;99.13;40.77;;;7.10;99.90;;;;;;5053728;28;20147;-49
2023/04/21 01:38:41;;;;;;;83.90;39.37;;;7.10;99.90;;;;;;5034563;28;20071;-51
2023/04/21 01:41:08;;;;;;;93.87;40.50;;;7.10;99.90;;;;;;5053576;28;20029;-49
2023/04/21 01:43:34;;;;;;;94.73;40.10;;;7.10;99.90;;;;;;5053274;28;20390;-50
2023/04/21 01:45:59;;;;;;;99.63;40.17;;;7.10;99.90;;;;;;5035614;28;20037;-53
2023/04/21 01:48:25;;;;;;;96.80;41.27;;;7.10;99.90;;;;;;5053217;28;20029;-48
2023/04/21 01:50:51;;;;;;;95.93;40.47;;;7.10;99.90;;;;;;5053351;28;20557;-49
2023/04/21 01:53:16;;;;;;;101.40;42.07;;;7.10;99.90;;;;;;5053217;28;20086;-51
2023/04/21 01:55:42;;;;;;;98.03;41.73;;;7.10;99.90;;;;;;5053132;28;20025;-50
2023/04/21 01:58:08;;;;;;;98.70;41.57;;;7.20;99.90;;;;;;5035404;28;20033;-48
2023/04/21 02:00:34;;;;;;;99.67;41.97;;;7.20;99.90;;;;;;5035263;28;20037;-52
2023/04/21 02:03:00;;;;;;;95.67;38.37;;;7.20;99.90;;;;;;5053086;28;20056;-52
2023/04/21 02:05:26;;;;;;;100.50;42.77;;;7.20;99.90;;;;;;5053080;28;20040;-51
2023/04/21 02:07:51;;;;;;;97.20;41.63;;;7.20;99.90;;;;;;5035075;28;20140;-51
2023/04/21 02:10:17;;;;;;;104.97;42.40;;;7.20;99.90;;;;;;5035212;28;20187;-51
2023/04/21 02:12:43;;;;;;;105.73;42.10;;;7.20;99.90;;;;;;5035116;28;20029;-52
2023/04/21 02:15:10;;;;;;;103.27;42.00;;;7.20;99.90;;;;;;5035023;28;20465;-50
2023/04/21 02:17:35;;;;;;;96.30;41.73;;;7.20;99.90;;;;;;5034783;28;20078;-50
2023/04/21 02:20:02;;;;;;;94.83;40.63;;;7.30;99.90;;;;;;5052786;28;20025;-49
2023/04/21 02:22:27;;;;;;;96.73;41.30;;;7.20;99.90;;;;;;5052822;28;20041;-51
2023/04/21 02:24:54;;;;;;;92.67;40.67;;;7.20;99.90;;;;;;5052665;28;20028;-50
2023/04/21 02:27:20;;;;;;;97.70;41.83;;;7.20;99.90;;;;;;5052568;28;20401;-49
2023/04/21 02:29:46;;;;;;;100.30;42.50;;;7.20;99.90;;;;;;5052626;28;20033;-51
2023/04/21 02:32:11;;;;;;;108.60;44.90;;;7.20;99.90;;;;;;5034559;28;20123;-49
2023/04/21 02:34:37;;;;;;;102.27;42.30;;;7.20;99.90;;;;;;5034321;28;20446;-50
2023/04/21 02:37:05;;;;;;;114.00;47.00;;;7.20;99.90;;;;;;5034614;28;20057;-52
2023/04/21 02:39:30;;;;;;;118.83;47.90;;;7.20;99.90;;;;;;5052428;28;20091;-52
2023/04/21 02:41:57;;;;;;;114.10;47.00;;;7.20;99.90;;;;;;5034629;28;20028;-50
2023/04/21 02:44:22;;;;;;;125.03;51.13;;;7.20;99.90;;;;;;5034223;28;20434;-53
2023/04/21 02:46:48;;;;;;;114.50;49.40;;;7.20;99.90;;;;;;5034243;28;20041;-51
2023/04/21 02:49:14;;;;;;;125.27;50.37;;;7.20;99.90;;;;;;5034304;28;20033;-50
2023/04/21 02:51:40;;;;;;;112.50;48.23;;;7.30;99.90;;;;;;5052350;28;20040;-52
2023/04/21 02:54:06;;;;;;;117.67;49.13;;;7.30;99.90;;;;;;5034042;28;20029;-52
2023/04/21 02:56:33;;;;;;;112.97;48.37;;;7.30;99.90;;;;;;5052020;28;20044;-51
2023/04/21 02:58:59;;;;;;;107.43;46.90;;;7.30;99.90;;;;;;5052080;28;20028;-53
2023/04/21 03:01:25;;;;;;;122.00;50.63;;;7.30;99.90;;;;;;5051965;28;20037;-50
2023/04/21 03:03:50;;;;;;;120.27;50.63;;;7.30;99.90;;;;;;5051760;28;20466;-53
2023/04/21 03:06:16;;;;;;;117.77;50.33;;;7.40;99.90;;;;;;5034061;28;20033;-52
2023/04/21 03:08:42;;;;;;;117.73;49.97;;;7.40;99.90;;;;;;5051792;28;20151;-51
2023/04/21 03:11:08;;;;;;;120.43;50.80;;;7.40;99.90;;;;;;5034247;28;20036;-50
2023/04/21 03:13:33;;;;;;;115.03;50.97;;;7.40;99.90;;;;;;5051494;28;20025;-50
2023/04/21 03:15:59;;;;;;;114.37;49.63;;;7.40;99.90;;;;;;5051837;28;20029;-51
2023/04/21 03:18:25;;;;;;;110.70;49.10;;;7.40;99.90;;;;;;5051465;28;20033;-48
2023/04/21 03:20:51;;;;;;;112.00;48.23;;;7.40;99.90;;;;;;5033821;28;20029;-51
2023/04/21 03:23:17;;;;;;;109.73;47.00;;;7.40;99.90;;;;;;5051745;28;20029;-50
2023/04/21 03:25:42;;;;;;;106.17;46.87;;;7.40;99.90;;;;;;5033671;28;20359;-51
2023/04/21 03:28:08;;;;;;;104.33;45.63;;;7.30;99.90;;;;;;5051426;28;20032;-51
2023/04/21 03:30:34;;;;;;;98.47;44.00;;;7.30;99.90;;;;;;5033565;28;20481;-49
2023/04/21 03:33:00;;;;;;;106.00;45.57;;;7.30;99.90;;;;;;5051446;28;20021;-49
2023/04/21 03:35:26;;;;;;;101.87;43.27;;;7.30;99.90;;;;;;5051067;28;20457;-50
2023/04/21 03:37:52;;;;;;;107.93;44.47;;;7.30;99.90;;;;;;5051183;28;20609;-49
2023/04/21 03:40:19;;;;;;;99.60;43.67;;;7.20;99.90;;;;;;5033404;28;20535;-50
2023/04/21 03:42:44;;;;;;;96.20;41.33;;;7.20;99.90;;;;;;5051248;28;20040;-49
2023/04/21 03:45:12;;;;;;;92.20;41.07;;;7.20;99.90;;;;;;5033092;28;20144;-51
2023/04/21 03:47:37;;;;;;;101.33;42.67;;;7.20;99.90;;;;;;5050956;28;20079;-50
2023/04/21 03:50:04;;;;;;;89.47;41.07;;;7.20;99.90;;;;;;5033299;28;20033;-50
2023/04/21 03:52:30;;;;;;;89.80;40.70;;;7.20;99.90;;;;;;5051037;28;20036;-51
2023/04/21 03:54:56;;;;;;;89.57;40.57;;;7.20;99.90;;;;;;5050833;28;20462;-53
2023/04/21 03:57:21;;;;;;;92.37;41.70;;;7.20;99.90;;;;;;5050699;28;20021;-50
2023/04/21 03:59:47;;;;;;;89.60;38.37;;;7.20;99.90;;;;;;5051112;28;20524;-52
2023/04/21 04:02:13;;;;;;;86.37;40.13;;;7.20;99.90;;;;;;5050640;28;20032;-53
2023/04/21 04:04:38;;;;;;;88.60;39.17;;;7.30;99.90;;;;;;5033118;28;20033;-52
2023/04/21 04:07:06;;;;;;;87.00;38.90;;;7.30;99.90;;;;;;5050894;28;20047;-51
2023/04/21 04:09:32;;;;;;;88.70;40.40;;;7.30;99.90;;;;;;5050919;28;20108;-52
2023/04/21 04:11:57;;;;;;;81.30;37.87;;;7.30;99.90;;;;;;5050751;28;20112;-52
2023/04/21 04:14:23;;;;;;;83.20;37.93;;;7.30;99.90;;;;;;5050828;28;20025;-50
2023/04/21 04:16:49;;;;;;;83.50;39.33;;;7.30;99.90;;;;;;5050762;28;20502;-50
2023/04/21 04:19:15;;;;;;;90.10;38.90;;;7.30;99.90;;;;;;5050861;28;20037;-48
2023/04/21 04:21:40;;;;;;;91.00;39.87;;;7.20;99.90;;;;;;5050813;28;20064;-50
2023/04/21 04:24:07;;;;;;;85.97;39.13;;;7.20;99.90;;;;;;5050609;28;20065;-49
2023/04/21 04:26:33;;;;;;;89.17;39.00;;;7.20;99.90;;;;;;5050507;28;20112;-52
2023/04/21 04:29:01;;;;;;;86.87;39.87;;;7.20;99.90;;;;;;5050674;28;20060;-49
2023/04/21 04:31:29;;;;;;;90.27;40.10;;;7.20;99.90;;;;;;5050682;28;20037;-51
2023/04/21 04:33:55;;;;;;;88.83;40.30;;;7.20;99.90;;;;;;5050198;28;20037;-51
2023/04/21 04:36:21;;;;;;;85.33;39.33;;;7.20;99.90;;;;;;5050364;28;20040;-51
2023/04/21 04:38:47;;;;;;;92.60;41.97;;;7.20;99.90;;;;;;5050470;28;20460;-52
2023/04/21 04:41:14;;;;;;;86.93;40.03;;;7.20;99.90;;;;;;5050428;28;20040;-52
2023/04/21 04:43:40;;;;;;;91.33;40.03;;;7.20;99.90;;;;;;5050281;28;20450;-49
2023/04/21 04:46:07;;;;;;;88.10;39.03;;;7.20;99.90;;;;;;5050456;28;20063;-49
2023/04/21 04:48:33;;;;;;;87.67;39.33;;;7.20;99.90;;;;;;5050252;28;20043;-51
2023/04/21 04:50:59;;;;;;;85.53;39.33;;;7.30;99.90;;;;;;5050476;28;20449;-50
2023/04/21 04:53:27;;;;;;;81.80;38.60;;;7.30;99.90;;;;;;5050012;28;20062;-51
2023/04/21 04:55:53;;;;;;;85.87;39.27;;;7.30;99.90;;;;;;5050171;28;20063;-52
2023/04/21 04:58:19;;;;;;;88.73;40.63;;;7.30;99.90;;;;;;5050042;28;20025;-51
2023/04/21 05:00:45;;;;;;;84.83;39.67;;;7.30;99.90;;;;;;5050001;28;20051;-50
2023/04/21 05:03:11;;;;;;;84.23;40.17;;;7.40;99.90;;;;;;5050222;28;20063;-50
2023/04/21 05:05:37;;;;;;;85.63;39.10;;;7.40;99.90;;;;;;5049941;28;20462;-49
2023/04/21 05:08:02;;;;;;;83.50;37.93;;;7.40;99.90;;;;;;5049970;28;20488;-53
2023/04/21 05:10:28;;;;;;;76.83;37.27;;;7.50;99.90;;;;;;5049858;28;20049;-52
2023/04/21 05:12:54;;;;;;;80.00;37.43;;;7.50;99.90;;;;;;5050029;28;20123;-50
2023/04/21 05:15:21;;;;;;;77.03;37.37;;;7.50;99.90;;;;;;5053320;28;20021;-51
2023/04/21 05:17:47;;;;;;;77.10;36.57;;;7.50;99.90;;;;;;5053551;28;20082;-53
2023/04/21 05:20:13;;;;;;;83.93;38.23;;;7.50;99.90;;;;;;5053681;28;20470;-49
2023/04/21 05:22:39;;;;;;;75.87;37.80;;;7.60;99.90;;;;;;5053594;28;20052;-52
2023/04/21 05:25:05;;;;;;;74.63;37.53;;;7.60;99.90;;;;;;5053660;28;20033;-49
2023/04/21 05:27:32;;;;;;;75.13;37.83;;;7.60;99.90;;;;;;5053643;28;20378;-49
2023/04/21 05:29:59;;;;;;;71.67;35.90;;;7.60;99.90;;;;;;5053389;28;20114;-52
2023/04/21 05:32:25;;;;;;;69.30;34.37;;;7.60;99.90;;;;;;5053766;28;20056;-49
2023/04/21 05:34:51;;;;;;;64.37;33.70;;;7.80;99.90;;;;;;5053173;28;20075;-52
2023/04/21 05:37:17;;;;;;;64.07;33.33;;;8.00;99.90;;;;;;5053189;28;20164;-52
2023/04/21 05:39:42;;;;;;;62.10;34.17;;;8.20;99.90;;;;;;5053220;28;20028;-49
2023/04/21 05:42:10;;;;;;;57.23;32.13;;;8.40;99.90;;;;;;5053168;28;20037;-51
2023/04/21 05:44:36;;;;;;;51.33;29.73;;;8.60;99.90;;;;;;5053016;28;20428;-52
2023/04/21 05:47:04;;;;;;;56.77;31.00;;;8.80;99.90;;;;;;5053087;28;20036;-48
2023/04/21 05:49:29;;;;;;;50.43;29.13;;;8.90;99.90;;;;;;5053030;28;20041;-49
2023/04/21 05:51:55;;;;;;;56.70;30.00;;;9.00;99.90;;;;;;5052970;28;20116;-48
2023/04/21 05:54:21;;;;;;;49.73;28.80;;;9.10;99.90;;;;;;5052749;28;20033;-49
2023/04/21 05:56:47;;;;;;;48.80;29.40;;;9.20;99.90;;;;;;5052728;28;20572;-52
2023/04/21 05:59:13;;;;;;;43.77;27.33;;;9.50;99.90;;;;;;5052908;28;20138;-49
2023/04/21 06:01:39;;;;;;;47.53;27.60;;;9.70;99.90;;;;;;5052878;28;20064;-53
2023/04/21 06:04:04;;;;;;;44.67;26.53;;;9.90;99.90;;;;;;5052610;28;20053;-52
2023/04/21 06:06:30;;;;;;;48.10;27.43;;;10.00;99.90;;;;;;5052583;28;20043;-49
2023/04/21 06:08:56;;;;;;;46.40;27.37;;;9.80;99.90;;;;;;5052828;28;20044;-49
2023/04/21 06:11:22;;;;;;;46.37;26.43;;;9.80;99.90;;;;;;5052797;28;20029;-48
2023/04/21 06:13:49;;;;;;;43.40;26.70;;;9.70;99.90;;;;;;5052660;28;20064;-51
2023/04/21 06:16:15;;;;;;;47.40;27.17;;;9.70;99.90;;;;;;5052764;28;20086;-49
2023/04/21 06:18:40;;;;;;;47.03;26.83;;;9.50;99.90;;;;;;5052570;28;20385;-52
2023/04/21 06:21:06;;;;;;;45.53;27.13;;;9.40;99.90;;;;;;5052489;28;20090;-49
2023/04/21 06:23:32;;;;;;;51.07;29.57;;;9.40;99.90;;;;;;5052221;28;20032;-50
2023/04/21 06:26:05;;;;;;;50.10;30.00;;;9.40;99.90;;;;;;5052144;28;20112;-49
2023/04/21 06:28:32;;;;;;;54.37;30.57;;;9.30;99.90;;;;;;5052111;28;20086;-51
2023/04/21 06:31:00;;;;;;;54.33;30.13;;;9.30;99.90;;;;;;5052398;28;20029;-49
2023/04/21 06:33:26;;;;;;;53.43;30.30;;;9.40;99.90;;;;;;5051786;28;20119;-49
2023/04/21 06:35:52;;;;;;;54.80;31.30;;;9.40;99.90;;;;;;5052136;28;20170;-49
2023/04/21 06:38:18;;;;;;;57.27;32.10;;;9.40;99.90;;;;;;5052027;28;20029;-49
2023/04/21 06:40:44;;;;;;;53.77;31.40;;;9.30;99.90;;;;;;5052209;28;20052;-49
2023/04/21 06:43:09;;;;;;;52.97;31.17;;;9.50;99.90;;;;;;5051870;28;20037;-48
2023/04/21 06:45:35;;;;;;;49.80;30.03;;;9.60;99.90;;;;;;5051760;28;20040;-49
2023/04/21 06:48:01;;;;;;;53.90;30.70;;;9.70;99.90;;;;;;5051816;28;20090;-47
2023/04/21 06:50:27;;;;;;;48.57;29.63;;;9.80;99.90;;;;;;5051810;28;20033;-51
2023/04/21 06:52:52;;;;;;;50.40;28.93;;;10.00;99.90;;;;;;5051972;28;20031;-50
2023/04/21 06:55:19;;;;;;;51.80;30.37;;;10.00;99.90;;;;;;5051662;28;20477;-50
2023/04/21 06:57:45;;;;;;;47.83;28.70;;;10.00;99.90;;;;;;5051732;28;20455;-49
2023/04/21 07:00:11;;;;;;;50.47;29.97;;;10.00;99.90;;;;;;5051760;28;20064;-50
2023/04/21 07:02:37;;;;;;;49.40;28.83;;;10.20;99.90;;;;;;5051616;28;20029;-53
2023/04/21 07:05:03;;;;;;;47.10;28.13;;;10.20;99.90;;;;;;5051375;28;20032;-50
2023/04/21 07:07:28;;;;;;;53.00;31.50;;;10.30;99.90;;;;;;5051508;28;20037;-50
2023/04/21 07:09:54;;;;;;;51.27;29.80;;;10.30;99.90;;;;;;5051727;28;20116;-52
2023/04/21 07:12:20;;;;;;;56.73;32.33;;;10.20;99.90;;;;;;5051449;28;20124;-53
2023/04/21 07:14:46;;;;;;;49.83;29.63;;;10.30;99.90;;;;;;5051219;28;20025;-54
2023/04/21 07:17:12;;;;;;;52.40;30.73;;;10.30;99.90;;;;;;5051297;28;20040;-51
2023/04/21 07:19:38;;;;;;;51.30;31.00;;;10.40;99.90;;;;;;5051191;28;20040;-52
2023/04/21 07:22:04;;;;;;;52.53;30.60;;;10.40;99.90;;;;;;5051478;28;20079;-50
2023/04/21 07:24:31;;;;;;;54.23;31.40;;;10.60;99.90;;;;;;5051238;28;20061;-49
2023/04/21 07:26:57;;;;;;;47.77;29.43;;;10.60;99.90;;;;;;5051028;28;20477;-50
2023/04/21 07:29:22;;;;;;;46.93;28.80;;;10.70;99.90;;;;;;5051244;28;20036;-49
2023/04/21 07:31:48;;;;;;;47.30;29.13;;;10.90;99.90;;;;;;5051153;28;20025;-52
2023/04/21 07:34:14;;;;;;;44.97;27.67;;;11.00;99.90;;;;;;5068555;22;20384;-59
2023/04/21 07:36:40;;;;;;;45.37;28.47;;;11.10;99.90;;;;;;5070379;28;20031;-56
2023/04/21 07:39:06;;;;;;;47.53;29.03;;;11.20;99.90;;;;;;5070968;28;20366;-59
2023/04/21 07:41:32;;;;;;;50.33;30.70;;;11.20;99.90;;;;;;5070895;28;20032;-59
2023/04/21 07:43:58;;;;;;;51.57;30.60;;;11.20;99.90;;;;;;5070641;28;20133;-59
2023/04/21 07:46:28;;;;;;;47.93;30.17;;;11.40;99.90;;;;;;5070575;28;20493;-59
2023/04/21 07:48:55;;;;;;;46.70;29.03;;;11.60;99.90;;;;;;5070903;28;20040;-59
2023/04/21 07:51:22;;;;;;;43.08;27.55;;;11.70;99.90;;;;;;5071164;28;20040;-58
2023/04/21 07:53:48;;;;;;;42.25;26.95;;;11.90;99.90;;;;;;5070769;28;20085;-58
2023/04/21 07:56:14;;;;;;;43.38;26.80;;;12.30;99.90;;;;;;5070811;28;20034;-58
2023/04/21 07:58:40;;;;;;;44.43;27.33;;;12.30;99.90;;;;;;5070571;28;20094;-58
2023/04/21 08:01:06;;;;;;;46.17;27.85;;;12.20;99.90;;;;;;5070768;28;20025;-59
2023/04/21 08:03:31;;;;;;;45.90;26.83;;;12.20;99.90;;;;;;5070468;28;20041;-58
2023/04/21 08:05:57;;;;;;;39.85;25.23;;;12.10;99.90;;;;;;5070893;28;20036;-58
2023/04/21 08:08:23;;;;;;;37.60;24.53;;;12.10;99.90;;;;;;5070882;28;20033;-58
2023/04/21 08:10:48;;;;;;;36.70;23.83;;;11.90;99.90;;;;;;5070589;28;20028;-58
2023/04/21 08:13:14;;;;;;;40.15;24.65;;;11.90;99.90;;;;;;5070655;28;20476;-59
2023/04/21 08:15:40;;;;;;;38.73;24.40;;;11.90;99.90;;;;;;5070252;28;20078;-58
2023/04/21 08:18:07;;;;;;;38.27;25.40;;;11.80;99.90;;;;;;5070600;28;20404;-58
2023/04/21 08:20:32;;;;;;;42.13;26.03;;;11.80;99.90;;;;;;5070506;28;20427;-58
2023/04/21 08:22:58;;;;;;;39.80;25.53;;;11.90;99.90;;;;;;5070408;28;20158;-59
2023/04/21 08:25:24;;;;;;;36.37;23.77;;;11.80;99.90;;;;;;5070218;28;20477;-59
2023/04/21 08:27:50;;;;;;;39.07;24.30;;;12.10;99.90;;;;;;5070121;28;20052;-59
2023/04/21 08:30:16;;;;;;;36.15;24.30;;;12.30;99.90;;;;;;5070260;28;20463;-58
2023/04/21 08:32:42;;;;;;;37.17;23.00;;;12.40;99.90;;;;;;5070154;28;20033;-58
2023/04/21 08:35:08;;;;;;;41.83;25.00;;;12.50;99.90;;;;;;5070011;28;20043;-58
2023/04/21 08:37:36;;;;;;;41.05;26.05;;;12.50;99.90;;;;;;5070023;28;20048;-57
2023/04/21 08:40:04;;;;;;;36.58;23.35;;;12.50;99.90;;;;;;5070137;28;20501;-58
2023/04/21 08:42:29;;;;;;;38.72;25.42;;;12.50;99.90;;;;;;5070253;28;20573;-58
2023/04/21 08:44:55;;;;;;;38.67;24.55;;;12.70;99.90;;;;;;5069818;28;20115;-59
2023/04/21 08:47:23;;;;;;;38.88;26.33;;;12.70;99.90;;;;;;5070425;28;20087;-58
2023/04/21 08:49:50;;;;;;;35.30;24.23;;;12.70;99.90;;;;;;5074139;28;20052;-58
2023/04/21 08:52:16;;;;;;;36.42;23.13;;;13.00;99.90;;;;;;5074004;28;20427;-59
2023/04/21 08:54:42;;;;;;;35.40;23.70;;;13.30;99.90;;;;;;5073790;28;20024;-58
2023/04/21 08:57:08;;;;;;;37.15;23.25;;;13.40;99.90;;;;;;5073905;28;20028;-59
2023/04/21 08:59:34;;;;;;;33.05;22.05;;;13.70;99.90;;;;;;5073975;28;20025;-58
2023/04/21 09:02:13;;;;;;;31.48;21.83;;;13.90;99.90;;;;;;5073993;28;20234;-59
2023/04/21 09:04:48;;;;;;;31.85;21.92;;;13.90;99.90;;;;;;5073775;28;20491;-58
2023/04/21 09:07:44;;;;;;;33.10;21.95;;;13.90;99.90;;;;;;5073712;28;20546;-59
2023/04/21 09:10:09;;;;;;;31.20;20.08;;;14.00;99.90;;;;;;5064817;28;20090;-58
2023/04/21 09:12:39;;;;;;;30.58;20.52;;;14.00;99.90;;;;;;5074031;28;20036;-58
2023/04/21 09:15:05;;;;;;;29.42;19.73;;;14.10;99.90;;;;;;5073551;28;20396;-58
2023/04/21 09:17:32;;;;;;;27.35;19.40;;;14.40;99.90;;;;;;5073542;28;20107;-59
2023/04/21 09:20:16;;;;;;;31.00;20.17;;;14.60;99.90;;;;;;5073652;28;20562;-59
2023/04/21 09:22:42;;;;;;;31.10;20.23;;;14.60;99.90;;;;;;5073653;28;20546;-59
2023/04/21 09:25:08;;;;;;;30.95;20.73;;;14.60;99.90;;;;;;5073479;28;20402;-59
2023/04/21 09:27:36;;;;;;;29.60;19.63;;;14.50;99.90;;;;;;5073612;28;20078;-58
2023/04/21 09:30:05;;;;;;;31.55;20.30;;;14.60;99.90;;;;;;5073425;28;20101;-59
2023/04/21 09:32:37;;;;;;;;;;;14.40;99.90;;;;;;5073887;28;20032;-59
2023/04/21 09:35:05;;;;;;;33.33;21.33;;;14.20;99.90;;;;;;5072964;28;19923;-58
2023/04/21 09:37:34;;;;;;;29.65;20.92;;;14.00;99.90;;;;;;5073202;28;20025;-58
2023/04/21 09:40:00;;;;;;;29.05;20.08;;;14.00;99.90;;;;;;5073169;28;20364;-59
2023/04/21 09:42:29;;;;;;;28.67;18.92;;;14.10;99.90;;;;;;5073278;28;20055;-58
2023/04/21 09:44:55;;;;;;;27.67;18.70;;;14.10;99.90;;;;;;5072973;28;20533;-58
2023/04/21 09:47:21;;;;;;;29.38;19.30;;;14.10;99.90;;;;;;5072864;28;20525;-59
2023/04/21 09:49:51;;;;;;;31.35;20.67;;;14.10;99.90;;;;;;5073304;28;20032;-58
2023/04/21 09:52:19;;;;;;;28.13;19.85;;;14.00;99.90;;;;;;5072964;28;20024;-58
2023/04/21 09:54:50;;;;;;;29.63;19.88;;;14.00;99.90;;;;;;5072834;28;20084;-59
2023/04/21 09:57:23;;;;;;;31.45;20.42;;;13.90;99.90;;;;;;5072899;28;20032;-58
2023/04/21 09:59:55;;;;;;;30.45;20.33;;;13.80;99.90;;;;;;5072066;28;20035;-58
2023/04/21 10:02:25;;;;;;;28.73;18.95;;;14.00;99.90;;;;;;5072966;28;20028;-59
2023/04/21 10:04:50;;;;;;;27.10;17.67;;;14.00;99.90;;;;;;5072485;28;20401;-57
2023/04/21 10:07:16;;;;;;;27.05;18.67;;;14.10;99.90;;;;;;5072775;28;20035;-54
2023/04/21 10:09:52;;;;;;;24.52;17.25;;;14.10;99.90;;;;;;5072796;28;20036;-56
2023/04/21 10:12:18;;;;;;;25.00;17.88;;;14.00;99.90;;;;;;5072496;28;20033;-56
2023/04/21 10:14:44;;;;;;;27.58;18.70;;;13.90;99.90;;;;;;5072373;28;20025;-56
2023/04/21 10:17:10;;;;;;;27.70;18.38;;;13.70;99.90;;;;;;5072486;28;20107;-58
2023/04/21 10:19:46;;;;;;;25.85;17.27;;;13.70;99.90;;;;;;5072514;28;20519;-57
2023/04/21 10:22:12;;;;;;;29.17;19.02;;;13.60;99.90;;;;;;5072445;28;20108;-57
2023/04/21 10:24:39;;;;;;;26.73;17.45;;;13.70;99.90;;;;;;5072219;28;20060;-57
2023/04/21 10:27:08;;;;;;;25.23;17.80;;;13.80;99.90;;;;;;5072158;28;20040;-56
2023/04/21 10:29:34;;;;;;;26.65;18.35;;;13.90;99.90;;;;;;5072568;28;20036;-57
2023/04/21 10:31:59;;;;;;;26.95;18.55;;;14.20;99.90;;;;;;5072189;28;20082;-57
2023/04/21 10:34:25;;;;;;;28.58;18.45;;;14.50;99.90;;;;;;5071941;28;20044;-56
2023/04/21 10:36:54;;;;;;;29.63;19.17;;;14.70;99.90;;;;;;5072063;28;20085;-54
2023/04/21 10:39:27;;;;;;;27.60;17.90;;;15.00;99.90;;;;;;5072517;28;20538;-57
2023/04/21 10:41:57;;;;;;;29.00;17.73;;;15.20;99.90;;;;;;5072087;28;20063;-57
2023/04/21 10:44:23;;;;;;;26.40;17.92;;;15.60;99.90;;;;;;5072001;28;20036;-58
2023/04/21 10:46:50;;;;;;;26.27;17.73;;;15.80;99.90;;;;;;5071830;28;20036;-56
2023/04/21 10:49:24;;;;;;;30.17;18.88;;;16.00;99.90;;;;;;5071949;28;20154;-57
2023/04/21 10:51:58;;;;;;;25.83;18.73;;;15.70;99.90;;;;;;5072359;28;20036;-55
2023/04/21 10:54:40;;;;;;;27.85;18.90;;;15.60;99.90;;;;;;5071603;28;20025;-57
2023/04/21 10:57:07;;;;;;;28.23;18.67;;;15.40;99.90;;;;;;5071912;28;20032;-57
2023/04/21 10:59:34;;;;;;;30.10;20.05;;;15.30;99.90;;;;;;5072095;28;20024;-56
2023/04/21 11:02:05;;;;;;;33.47;21.70;;;15.30;99.90;;;;;;5071796;28;20033;-56
2023/04/21 11:04:31;;;;;;;26.98;17.77;;;15.40;99.90;;;;;;5071277;28;20492;-56
2023/04/21 11:07:16;;;;;;;24.80;17.77;;;15.50;99.90;;;;;;5071346;28;20036;-56
2023/04/21 11:09:43;;;;;;;26.05;17.52;;;16.20;99.90;;;;;;5071680;28;20035;-56
2023/04/21 11:12:11;;;;;;;26.83;18.08;;;16.70;99.90;;;;;;5070355;28;20036;-57
2023/04/21 11:14:38;;;;;;;27.27;19.05;;;16.90;99.90;;;;;;5071160;28;20025;-57
2023/04/21 11:17:09;;;;;;;24.20;18.30;;;17.10;99.90;;;;;;5071107;28;20480;-57
2023/04/21 11:19:35;;;;;;;27.90;18.55;;;17.00;99.90;;;;;;5071445;28;20032;-55
2023/04/21 11:22:03;;;;;;;28.98;18.60;;;16.80;99.90;;;;;;5071198;28;20024;-56
2023/04/21 11:24:30;;;;;;;27.98;18.52;;;16.40;99.90;;;;;;5071367;28;20036;-56
2023/04/21 11:26:57;;;;;;;29.38;18.92;;;16.30;99.90;;;;;;5071005;28;20435;-57
2023/04/21 11:29:23;;;;;;;29.55;19.05;;;16.30;99.90;;;;;;5071029;28;20035;-57
2023/04/21 11:31:49;;;;;;;27.60;18.65;;;16.40;99.90;;;;;;5071109;28;20477;-55
2023/04/21 11:34:19;;;;;;;28.95;19.83;;;16.50;99.90;;;;;;5070703;28;20029;-56
2023/04/21 11:36:46;;;;;;;26.92;19.88;;;16.30;99.90;;;;;;5070771;28;20034;-57
2023/04/21 11:39:15;;;;;;;30.42;20.05;;;16.10;99.90;;;;;;5070893;28;20025;-57
2023/04/21 11:41:43;;;;;;;36.85;23.20;;;16.10;99.90;;;;;;5070924;28;20079;-56
2023/04/21 11:44:10;;;;;;;32.03;21.25;;;16.10;99.90;;;;;;5070609;28;20091;-55
2023/04/21 11:46:36;;;;;;;33.45;21.23;;;16.00;99.90;;;;;;5070535;28;20036;-54
2023/04/21 11:49:07;;;;;;;31.52;20.08;;;15.80;99.90;;;;;;5070883;28;20100;-56
2023/04/21 11:51:37;;;;;;;27.60;19.50;;;15.90;99.90;;;;;;5070686;28;20492;-56
2023/04/21 11:54:05;;;;;;;27.77;18.98;;;15.80;99.90;;;;;;5070299;28;20446;-56
2023/04/21 11:56:38;;;;;;;30.65;20.17;;;15.80;99.90;;;;;;5070421;28;20020;-55
2023/04/21 11:59:25;;;;;;;32.90;19.50;;;16.10;99.90;;;;;;5070661;28;20116;-57
2023/04/21 12:01:52;;;;;;;31.02;18.10;;;16.60;99.90;;;;;;5070670;28;20074;-57
2023/04/21 12:04:23;;;;;;;26.45;18.45;;;17.00;99.90;;;;;;5070236;28;20032;-57
2023/04/21 12:06:58;;;;;;;28.65;19.08;;;17.20;99.90;;;;;;5070205;28;20067;-56
2023/04/21 12:09:24;;;;;;;31.45;21.17;;;17.30;99.90;;;;;;5070614;28;20055;-56
2023/04/21 12:11:52;;;;;;;30.63;19.35;;;17.40;99.90;;;;;;5069158;28;20028;-56
2023/04/21 12:14:19;;;;;;;25.58;17.17;;;17.50;99.90;;;;;;5070004;28;20037;-57
2023/04/21 12:16:49;;;;;;;29.65;17.75;;;17.40;99.90;;;;;;5070324;28;20119;-56
2023/04/21 12:19:35;;;;;;;24.63;17.23;;;17.20;99.90;;;;;;5070190;28;20517;-56
2023/04/21 12:22:05;;;;;;;21.58;15.65;;;17.40;99.90;;;;;;5070019;28;20036;-57
2023/04/21 12:24:31;;;;;;;25.15;16.23;;;17.40;99.90;;;;;;5070107;28;20025;-57
2023/04/21 12:26:56;;;;;;;26.10;16.50;;;17.30;99.90;;;;;;5070149;28;20017;-57
2023/04/21 12:29:22;;;;;;;21.45;15.10;;;17.30;99.90;;;;;;5070298;28;20059;-56